Time;durP1;ratioP1;P1;durP2;ratioP2;P2;SDS_P1;SDS_P2;PMS_P1;PMS_P2;Temp;Humidity;BMP_temperature;BMP_pressure;BME280_temperature;BME280_humidity;BME280_pressure;Samples;Min_cycle;Max_cycle;Signal;HPM_P1;HPM_P2
2021/05/19 00:00:08;;;;;;;4.72;3.50;;;7.10;99.90;;;;;;6154017;23;20037;-91
2021/05/19 00:02:35;;;;;;;3.70;3.40;;;7.20;99.90;;;;;;6154099;23;20053;-91
2021/05/19 00:05:03;;;;;;;3.70;3.25;;;7.10;99.90;;;;;;6142409;23;20116;-90
2021/05/19 00:07:31;;;;;;;4.75;3.38;;;7.10;99.90;;;;;;6128808;23;20022;-90
2021/05/19 00:09:57;;;;;;;4.30;3.90;;;7.10;99.90;;;;;;6154391;23;20049;-91
2021/05/19 00:12:25;;;;;;;5.45;3.80;;;7.10;99.90;;;;;;6128667;23;20052;-91
2021/05/19 00:14:56;;;;;;;4.53;4.03;;;7.10;99.90;;;;;;6154494;23;20036;-90
2021/05/19 00:17:24;;;;;;;4.25;3.85;;;7.10;99.90;;;;;;6152730;23;20053;-91
2021/05/19 00:19:52;;;;;;;4.35;3.88;;;7.20;99.90;;;;;;6154461;23;20124;-90
2021/05/19 00:22:19;;;;;;;3.58;3.33;;;7.20;99.90;;;;;;6153680;23;20100;-90
2021/05/19 00:24:47;;;;;;;7.32;4.30;;;7.20;99.90;;;;;;6154190;23;20271;-91
2021/05/19 00:27:14;;;;;;;3.97;3.17;;;7.20;99.90;;;;;;6154396;23;20089;-89
2021/05/19 00:29:41;;;;;;;3.58;3.22;;;7.20;99.90;;;;;;6155483;23;20093;-92
2021/05/19 00:32:08;;;;;;;5.55;3.10;;;7.20;99.90;;;;;;6153409;23;20266;-89
2021/05/19 00:34:35;;;;;;;3.20;2.90;;;7.30;99.90;;;;;;6127532;23;20021;-91
2021/05/19 00:37:05;;;;;;;2.80;2.50;;;7.20;99.90;;;;;;6128130;23;20021;-90
2021/05/19 00:39:32;;;;;;;6.72;2.83;;;7.30;99.90;;;;;;6153682;23;20100;-91
2021/05/19 00:41:59;;;;;;;4.03;3.00;;;7.30;99.90;;;;;;6103597;23;20096;-89
2021/05/19 00:44:31;;;;;;;4.85;2.97;;;7.30;99.90;;;;;;6152633;23;20024;-91
2021/05/19 00:46:59;;;;;;;4.03;2.80;;;7.30;99.90;;;;;;6154069;23;20166;-89
2021/05/19 00:49:26;;;;;;;3.00;2.80;;;7.20;99.90;;;;;;6153404;23;20088;-91
2021/05/19 00:51:53;;;;;;;3.40;2.97;;;7.30;99.90;;;;;;6127925;23;20097;-89
2021/05/19 00:54:22;;;;;;;3.60;3.20;;;7.30;99.90;;;;;;6102877;23;20029;-89
2021/05/19 00:56:53;;;;;;;3.33;3.03;;;7.30;99.90;;;;;;6152959;23;20112;-91
2021/05/19 00:59:20;;;;;;;3.38;3.08;;;7.30;99.90;;;;;;6127921;23;20029;-88
2021/05/19 01:01:47;;;;;;;6.68;3.00;;;7.30;99.90;;;;;;6153350;23;20032;-91
2021/05/19 01:04:14;;;;;;;2.90;2.70;;;7.30;99.90;;;;;;6152712;23;20067;-90
2021/05/19 01:06:58;;;;;;;3.17;2.88;;;7.20;99.90;;;;;;6128095;23;20099;-91
2021/05/19 01:09:35;;;;;;;7.93;3.05;;;7.20;99.90;;;;;;6153481;23;20115;-90
2021/05/19 01:12:10;;;;;;;3.50;3.05;;;7.20;99.90;;;;;;6105807;23;20054;-91
2021/05/19 01:14:40;;;;;;;3.88;3.10;;;7.20;99.90;;;;;;6128289;23;20025;-90
2021/05/19 01:17:08;;;;;;;4.47;3.30;;;7.20;99.90;;;;;;6151918;23;20021;-90
2021/05/19 01:19:40;;;;;;;4.72;3.40;;;7.20;99.90;;;;;;6126798;23;20037;-89
2021/05/19 01:22:13;;;;;;;6.47;3.65;;;7.20;99.90;;;;;;6152582;23;20389;-88
2021/05/19 01:24:40;;;;;;;5.10;3.35;;;7.20;99.90;;;;;;6153650;23;20313;-91
2021/05/19 01:27:08;;;;;;;4.93;3.30;;;7.20;99.90;;;;;;6153622;23;20083;-91
2021/05/19 01:29:35;;;;;;;7.35;3.45;;;7.10;99.90;;;;;;6127622;23;20476;-93
2021/05/19 01:32:03;;;;;;;5.90;3.67;;;7.10;99.90;;;;;;6152840;23;20053;-91
2021/05/19 01:34:30;;;;;;;4.72;4.30;;;7.10;99.90;;;;;;6153869;23;20450;-91
2021/05/19 01:36:57;;;;;;;3.90;3.60;;;7.00;99.90;;;;;;6103622;23;20369;-90
2021/05/19 01:39:25;;;;;;;6.35;4.07;;;7.00;99.90;;;;;;6153559;23;20029;-89
2021/05/19 01:41:52;;;;;;;3.97;3.50;;;7.00;99.90;;;;;;6153898;23;20025;-91
2021/05/19 01:44:19;;;;;;;7.40;4.05;;;7.00;99.90;;;;;;6103531;23;20017;-91
2021/05/19 01:46:46;;;;;;;11.85;4.85;;;6.90;99.90;;;;;;6153596;23;20022;-90
2021/05/19 01:49:17;;;;;;;4.50;4.10;;;6.90;99.90;;;;;;6153028;23;20444;-91
2021/05/19 01:51:46;;;;;;;4.45;3.67;;;6.90;99.90;;;;;;6157601;23;20048;-89
2021/05/19 01:54:13;;;;;;;4.35;3.50;;;6.90;99.90;;;;;;6128904;23;20045;-91
2021/05/19 01:56:41;;;;;;;6.32;4.32;;;6.90;99.90;;;;;;6154084;23;20037;-91
2021/05/19 01:59:08;;;;;;;6.97;4.28;;;6.90;99.90;;;;;;6127239;23;20025;-89
2021/05/19 02:01:35;;;;;;;7.45;4.30;;;6.90;99.90;;;;;;6152820;23;20037;-90
2021/05/19 02:04:15;;;;;;;6.50;3.80;;;6.90;99.90;;;;;;6097210;23;20018;-89
2021/05/19 02:06:54;;;;;;;7.45;4.55;;;6.90;99.90;;;;;;6124232;23;20112;-89
2021/05/19 02:09:24;;;;;;;6.55;4.60;;;6.90;99.90;;;;;;6122884;23;20049;-89
2021/05/19 02:11:51;;;;;;;7.47;4.93;;;6.90;99.90;;;;;;6124498;23;20096;-90
2021/05/19 02:14:20;;;;;;;4.72;4.22;;;6.90;99.90;;;;;;6122766;23;20026;-90
2021/05/19 02:16:47;;;;;;;6.53;3.90;;;6.90;99.90;;;;;;6123302;23;20037;-92
2021/05/19 02:19:15;;;;;;;5.57;3.90;;;7.00;99.90;;;;;;6123990;23;20033;-91
2021/05/19 02:21:44;;;;;;;5.40;3.72;;;7.00;99.90;;;;;;6122365;23;20033;-91
2021/05/19 02:24:13;;;;;;;5.20;4.10;;;7.00;99.90;;;;;;6124091;23;20085;-90
2021/05/19 02:26:41;;;;;;;6.68;4.00;;;7.00;99.90;;;;;;6122124;23;20026;-89
2021/05/19 02:29:09;;;;;;;3.83;3.53;;;7.00;99.90;;;;;;6124183;23;20022;-92
2021/05/19 02:31:37;;;;;;;12.73;4.05;;;7.00;99.90;;;;;;6129801;23;20064;-89
2021/05/19 02:34:05;;;;;;;5.00;3.35;;;7.00;99.90;;;;;;6127575;23;20025;-90
2021/05/19 02:36:33;;;;;;;9.68;3.90;;;7.00;99.90;;;;;;6123346;23;20338;-91
2021/05/19 02:39:00;;;;;;;4.20;3.80;;;6.90;99.90;;;;;;6099901;23;20944;-91
2021/05/19 02:41:27;;;;;;;6.50;4.47;;;6.90;99.90;;;;;;6125271;23;20141;-90
2021/05/19 02:43:54;;;;;;;6.85;3.47;;;6.80;99.90;;;;;;6125443;23;20501;-91
2021/05/19 02:46:21;;;;;;;4.85;3.95;;;6.80;99.90;;;;;;6132338;23;20022;-91
2021/05/19 02:48:48;;;;;;;4.47;4.03;;;6.80;99.90;;;;;;6133997;23;20361;-90
2021/05/19 02:51:18;;;;;;;8.13;4.32;;;6.90;99.90;;;;;;6133567;23;20045;-91
2021/05/19 02:54:04;;;;;;;5.97;4.13;;;6.90;99.90;;;;;;6070493;23;20038;-88
2021/05/19 02:56:32;;;;;;;6.47;4.00;;;6.80;99.90;;;;;;6071312;23;20160;-90
2021/05/19 02:58:59;;;;;;;4.40;4.00;;;6.90;99.90;;;;;;6073099;23;20341;-90
2021/05/19 03:01:26;;;;;;;6.18;3.92;;;6.90;99.90;;;;;;6073873;23;20379;-90
2021/05/19 03:03:53;;;;;;;5.75;4.40;;;6.90;99.90;;;;;;6027472;23;20082;-91
2021/05/19 03:06:22;;;;;;;5.60;3.80;;;6.90;99.90;;;;;;6070105;23;20030;-89
2021/05/19 03:08:50;;;;;;;6.35;4.00;;;6.90;99.90;;;;;;6066797;23;20019;-92
2021/05/19 03:11:18;;;;;;;6.18;4.35;;;6.90;99.90;;;;;;6066332;23;20118;-90
2021/05/19 03:13:45;;;;;;;4.93;4.45;;;6.90;99.90;;;;;;6066199;23;20370;-88
2021/05/19 03:16:12;;;;;;;11.63;4.70;;;6.90;99.90;;;;;;6065625;23;20023;-90
2021/05/19 03:18:42;;;;;;;5.47;4.68;;;6.90;99.90;;;;;;6041889;23;20058;-91
2021/05/19 03:21:11;;;;;;;5.95;4.70;;;6.90;99.90;;;;;;6064793;23;20027;-90
2021/05/19 03:23:41;;;;;;;5.93;4.53;;;6.90;99.90;;;;;;6040900;23;20138;-89
2021/05/19 03:26:08;;;;;;;6.47;4.50;;;6.90;99.90;;;;;;6117413;23;20057;-90
2021/05/19 03:28:35;;;;;;;5.22;4.00;;;6.90;99.90;;;;;;6100132;23;20101;-91
2021/05/19 03:31:04;;;;;;;5.43;4.93;;;6.90;99.90;;;;;;6124961;23;20022;-89
2021/05/19 03:33:32;;;;;;;6.60;4.93;;;6.90;99.90;;;;;;6124349;23;20449;-91
2021/05/19 03:36:04;;;;;;;6.70;4.85;;;7.00;99.90;;;;;;6124539;23;20425;-90
2021/05/19 03:38:35;;;;;;;4.97;4.50;;;7.00;99.90;;;;;;6101334;23;20322;-90
2021/05/19 03:41:04;;;;;;;8.15;4.32;;;7.00;99.90;;;;;;6125123;23;20143;-90
2021/05/19 03:43:32;;;;;;;5.82;4.63;;;7.00;99.90;;;;;;6124723;23;20029;-89
2021/05/19 03:45:59;;;;;;;6.65;4.35;;;7.00;99.90;;;;;;6124627;23;20375;-90
2021/05/19 03:48:27;;;;;;;5.57;4.00;;;7.00;99.90;;;;;;6124664;23;20113;-91
2021/05/19 03:50:55;;;;;;;5.80;4.32;;;7.00;99.90;;;;;;6122906;23;20373;-92
2021/05/19 03:53:22;;;;;;;4.70;3.83;;;7.10;99.90;;;;;;6125999;23;20025;-92
2021/05/19 03:55:49;;;;;;;7.80;3.90;;;7.10;99.90;;;;;;6100575;23;20026;-91
2021/05/19 03:58:16;;;;;;;6.00;4.05;;;7.10;99.90;;;;;;6130332;23;20018;-92
2021/05/19 04:00:46;;;;;;;5.45;3.60;;;7.00;99.90;;;;;;6130651;23;20085;-93
2021/05/19 04:03:14;;;;;;;4.68;3.90;;;7.10;99.90;;;;;;6133088;23;20327;-91
2021/05/19 04:05:42;;;;;;;5.43;4.05;;;7.10;99.90;;;;;;6159831;23;20021;-92
2021/05/19 04:08:09;;;;;;;5.18;3.97;;;7.10;99.90;;;;;;6132043;23;20021;-90
2021/05/19 04:10:39;;;;;;;5.13;3.53;;;7.10;99.90;;;;;;6155617;23;20088;-92
2021/05/19 04:13:09;;;;;;;4.72;4.28;;;7.10;99.90;;;;;;6129553;23;20032;-91
2021/05/19 04:15:36;;;;;;;6.20;4.32;;;7.10;99.90;;;;;;6155966;23;20033;-92
2021/05/19 04:18:05;;;;;;;7.68;4.38;;;7.10;99.90;;;;;;6156809;23;20100;-91
2021/05/19 04:21:00;;;;;;;8.10;4.85;;;7.10;99.90;;;;;;6159805;23;20025;-93
2021/05/19 04:34:09;;;;;;;9.07;5.22;;;7.10;99.90;;;;;;6035396;23;20138;-93
2021/05/19 04:36:53;;;;;;;;;;;7.20;99.90;;;;;;6059310;23;20054;-92
2021/05/19 04:43:26;;;;;;;9.20;5.43;;;7.30;99.90;;;;;;5971257;24;20047;-93
2021/05/19 04:46:17;;;;;;;8.27;5.00;;;7.30;99.90;;;;;;5957568;24;20164;-92
2021/05/19 04:48:45;;;;;;;11.32;5.45;;;7.30;99.90;;;;;;5977630;24;20028;-91
2021/05/19 04:51:12;;;;;;;6.85;5.55;;;7.30;99.90;;;;;;5955126;24;20032;-94
2021/05/19 04:53:44;;;;;;;6.88;5.45;;;7.30;99.90;;;;;;5977792;24;20290;-92
2021/05/19 04:56:12;;;;;;;6.50;5.45;;;7.30;99.90;;;;;;5978083;24;20052;-91
2021/05/19 04:58:39;;;;;;;7.35;5.65;;;7.40;99.90;;;;;;5999819;23;20026;-91
2021/05/19 05:01:06;;;;;;;7.47;4.60;;;7.40;99.90;;;;;;6033524;23;20070;-93
2021/05/19 05:03:33;;;;;;;6.25;5.30;;;7.40;99.90;;;;;;6011755;23;20045;-90
2021/05/19 05:06:00;;;;;;;11.52;5.00;;;7.50;99.90;;;;;;6034749;23;20046;-91
2021/05/19 05:08:29;;;;;;;7.13;5.65;;;7.50;99.90;;;;;;6010448;23;20132;-91
2021/05/19 05:10:56;;;;;;;7.72;5.50;;;7.50;99.90;;;;;;6101745;23;20029;-88
2021/05/19 05:13:24;;;;;;;9.50;5.68;;;7.50;99.90;;;;;;6154981;23;20041;-92
2021/05/19 05:15:51;;;;;;;6.18;5.05;;;7.50;99.90;;;;;;6153315;23;20452;-90
2021/05/19 05:18:18;;;;;;;7.40;5.53;;;7.60;99.90;;;;;;6128543;23;20032;-90
2021/05/19 05:20:45;;;;;;;6.22;5.30;;;7.60;99.90;;;;;;6104049;23;20096;-92
2021/05/19 05:23:13;;;;;;;8.75;5.25;;;7.70;99.90;;;;;;6153585;23;20053;-90
2021/05/19 05:25:40;;;;;;;9.85;5.32;;;7.70;99.90;;;;;;6126407;23;20064;-90
2021/05/19 05:28:18;;;;;;;7.30;4.90;;;7.80;99.90;;;;;;6126340;23;20096;-88
2021/05/19 05:30:49;;;;;;;7.35;4.45;;;7.80;99.90;;;;;;6151633;23;20041;-89
2021/05/19 05:33:16;;;;;;;7.43;4.18;;;7.90;99.90;;;;;;6152377;23;20017;-88
2021/05/19 05:35:45;;;;;;;6.35;4.68;;;7.90;99.90;;;;;;6128023;23;20024;-87
2021/05/19 05:38:12;;;;;;;5.75;4.80;;;7.90;99.90;;;;;;6102353;23;20028;-87
2021/05/19 05:40:40;;;;;;;8.20;5.10;;;8.00;99.90;;;;;;6126457;23;20044;-87
2021/05/19 05:43:16;;;;;;;6.70;3.38;;;8.00;99.90;;;;;;6151852;23;20031;-87
2021/05/19 05:45:46;;;;;;;5.20;4.70;;;8.00;99.90;;;;;;6153131;23;20022;-87
2021/05/19 05:48:14;;;;;;;7.25;4.25;;;8.00;99.90;;;;;;6127807;23;20018;-88
2021/05/19 05:51:02;;;;;;;5.10;4.65;;;8.00;99.90;;;;;;6136406;23;20022;-86
2021/05/19 05:53:31;;;;;;;7.00;4.15;;;8.10;99.90;;;;;;6127119;23;20029;-88
2021/05/19 05:55:58;;;;;;;9.98;4.10;;;8.10;99.90;;;;;;6151815;23;20476;-89
2021/05/19 05:58:27;;;;;;;6.25;4.20;;;8.10;99.90;;;;;;6151933;23;20021;-88
2021/05/19 06:00:59;;;;;;;4.33;3.93;;;8.20;99.90;;;;;;6127699;23;20031;-88
2021/05/19 06:03:29;;;;;;;5.30;3.72;;;8.20;99.90;;;;;;6152459;23;20025;-88
2021/05/19 06:06:22;;;;;;;4.57;3.60;;;8.20;99.90;;;;;;6144889;23;20025;-90
2021/05/19 06:09:19;;;;;;;7.50;3.83;;;8.40;99.90;;;;;;6127876;23;20013;-92
2021/05/19 06:11:59;;;;;;;5.22;3.28;;;8.80;99.90;;;;;;6015867;23;20023;-91
2021/05/19 06:14:49;;;;;;;6.68;3.50;;;8.90;99.90;;;;;;6101507;23;20026;-91
2021/05/19 06:17:41;;;;;;;5.85;3.58;;;8.90;99.90;;;;;;6152285;23;20040;-92
2021/05/19 06:20:18;;;;;;;4.43;3.35;;;8.80;99.90;;;;;;6127203;23;20022;-93
2021/05/19 06:23:34;;;;;;;;;;;;;;;;;;;;;
2021/05/19 06:26:22;;;;;;;7.82;3.63;;;8.90;99.90;;;;;;6151069;23;20285;-90
2021/05/19 06:28:49;;;;;;;4.32;3.15;;;9.20;99.90;;;;;;6127077;23;20026;-90
2021/05/19 06:31:16;;;;;;;3.42;3.13;;;9.80;99.90;;;;;;6101744;23;20018;-90
2021/05/19 06:33:44;;;;;;;5.07;3.25;;;10.20;99.90;;;;;;6126026;23;20712;-89
2021/05/19 06:36:18;;;;;;;4.03;3.10;;;10.60;99.90;;;;;;6151341;23;20029;-91
2021/05/19 06:39:07;;;;;;;3.65;2.95;;;10.90;99.90;;;;;;6152116;23;20050;-91
2021/05/19 06:42:04;;;;;;;3.22;2.60;;;11.60;99.90;;;;;;6151590;23;20025;-91
2021/05/19 06:44:34;;;;;;;2.30;2.10;;;12.40;99.90;;;;;;6127567;23;20021;-92
2021/05/19 06:47:26;;;;;;;2.97;2.38;;;12.70;99.90;;;;;;6126774;23;20032;-91
2021/05/19 06:49:53;;;;;;;9.00;2.42;;;12.60;99.90;;;;;;6126075;23;20025;-90
2021/05/19 06:52:21;;;;;;;2.45;2.25;;;12.40;99.90;;;;;;6125571;23;20021;-91
2021/05/19 06:54:53;;;;;;;4.32;2.60;;;12.30;99.90;;;;;;6125955;23;20095;-90
2021/05/19 06:57:20;;;;;;;2.70;2.10;;;12.50;99.90;;;;;;6126848;23;20116;-88
2021/05/19 06:59:53;;;;;;;2.38;2.15;;;12.30;99.90;;;;;;6151191;23;20092;-90
2021/05/19 07:02:32;;;;;;;5.78;2.65;;;11.90;99.90;;;;;;6106165;23;20021;-90
2021/05/19 07:05:08;;;;;;;6.07;2.72;;;11.80;99.90;;;;;;6153484;23;20035;-91
2021/05/19 07:10:38;;;;;;;4.40;2.65;;;12.10;99.90;;;;;;6137176;23;20085;-90
2021/05/19 07:13:08;;;;;;;5.32;2.38;;;11.80;99.90;;;;;;6126533;23;20053;-89
2021/05/19 07:15:38;;;;;;;2.45;2.22;;;11.90;99.90;;;;;;6126563;23;20061;-89
2021/05/19 07:18:07;;;;;;;3.83;2.22;;;12.00;99.90;;;;;;6125359;23;20025;-90
2021/05/19 07:20:43;;;;;;;7.10;2.58;;;12.20;99.90;;;;;;6152001;23;20018;-89
2021/05/19 07:23:10;;;;;;;3.47;2.35;;;12.70;99.90;;;;;;6151984;23;20108;-89
2021/05/19 07:25:37;;;;;;;3.13;2.00;;;13.20;99.90;;;;;;6151900;23;20314;-91
2021/05/19 07:28:08;;;;;;;4.22;2.30;;;14.00;99.90;;;;;;6124804;23;20077;-90
2021/05/19 07:30:55;;;;;;;2.53;2.13;;;14.10;99.90;;;;;;6126125;23;20022;-90
2021/05/19 07:33:24;;;;;;;4.32;2.00;;;14.10;99.90;;;;;;6127761;23;20025;-89
2021/05/19 07:36:03;;;;;;;3.40;2.45;;;13.90;99.90;;;;;;6152708;23;20032;-87
2021/05/19 07:38:29;;;;;;;3.50;2.25;;;13.70;99.90;;;;;;6153386;23;20409;-87
2021/05/19 07:40:56;;;;;;;2.85;2.17;;;13.30;99.90;;;;;;6104427;23;20097;-89
2021/05/19 07:43:23;;;;;;;3.03;2.28;;;13.30;99.90;;;;;;6153446;23;20160;-88
2021/05/19 07:45:51;;;;;;;4.68;2.15;;;13.50;99.90;;;;;;6127955;23;20128;-92
2021/05/19 07:48:18;;;;;;;3.38;2.08;;;13.50;99.90;;;;;;6156450;23;20084;-92
2021/05/19 07:50:43;;;;;;;3.40;2.20;;;13.70;99.90;;;;;;6154895;23;20085;-92
2021/05/19 07:53:11;;;;;;;2.83;2.00;;;14.10;99.90;;;;;;6155240;23;20084;-92
2021/05/19 07:58:31;;;;;;;3.00;2.15;;;15.00;99.90;;;;;;6130201;23;20092;-91
2021/05/19 08:01:11;;;;;;;3.47;2.00;;;15.10;99.90;;;;;;6154530;23;20496;-90
2021/05/19 08:03:37;;;;;;;5.38;2.20;;;16.00;96.40;;;;;;6156982;23;20025;-89
2021/05/19 08:06:06;;;;;;;3.03;1.98;;;16.40;93.40;;;;;;6129539;23;20032;-90
2021/05/19 08:08:32;;;;;;;2.80;1.67;;;17.10;92.50;;;;;;6129259;23;20096;-89
2021/05/19 08:10:58;;;;;;;2.58;1.65;;;17.10;89.80;;;;;;6154123;23;20017;-90
2021/05/19 08:13:24;;;;;;;3.88;2.00;;;17.20;84.00;;;;;;6128434;23;20017;-90
2021/05/19 08:15:55;;;;;;;3.03;1.67;;;17.60;86.60;;;;;;6153914;23;20025;-91
2021/05/19 08:18:24;;;;;;;3.03;1.60;;;18.30;78.70;;;;;;6153856;23;20018;-89
2021/05/19 08:20:51;;;;;;;3.65;1.75;;;19.00;75.30;;;;;;6128856;23;20025;-90
2021/05/19 08:23:18;;;;;;;1.80;1.30;;;19.80;66.80;;;;;;6129772;23;20026;-89
2021/05/19 08:25:47;;;;;;;3.03;1.45;;;19.90;65.80;;;;;;6154554;23;20025;-88
2021/05/19 08:28:16;;;;;;;4.15;1.70;;;19.50;65.90;;;;;;6154560;23;20018;-89
2021/05/19 08:30:44;;;;;;;2.85;1.70;;;18.90;65.90;;;;;;6128988;23;20022;-89
2021/05/19 08:33:11;;;;;;;4.03;1.67;;;18.00;70.20;;;;;;6129359;23;20084;-90
2021/05/19 08:35:37;;;;;;;2.05;1.55;;;17.10;73.90;;;;;;6154366;23;20095;-90
2021/05/19 08:38:05;;;;;;;2.10;1.60;;;16.80;77.60;;;;;;6127846;23;20140;-89
2021/05/19 08:40:32;;;;;;;6.50;2.00;;;17.10;75.90;;;;;;6153655;23;20060;-91
2021/05/19 08:42:58;;;;;;;3.22;1.50;;;16.70;74.10;;;;;;6155247;23;20048;-91
2021/05/19 08:45:26;;;;;;;4.03;1.52;;;16.30;74.50;;;;;;6132771;23;20413;-90
2021/05/19 08:48:02;;;;;;;2.97;1.50;;;16.80;76.30;;;;;;6157276;23;20083;-92
2021/05/19 08:50:31;;;;;;;3.80;2.00;;;17.70;73.80;;;;;;6159590;23;20097;-92
2021/05/19 08:53:05;;;;;;;4.82;1.33;;;18.20;66.90;;;;;;6156182;23;20456;-90
2021/05/19 08:55:32;;;;;;;4.00;1.42;;;18.70;66.30;;;;;;6156475;23;20100;-90
2021/05/19 08:57:59;;;;;;;4.47;1.25;;;19.10;64.40;;;;;;6157431;23;20056;-92
2021/05/19 09:00:28;;;;;;;1.77;1.10;;;18.70;62.80;;;;;;6156679;23;20021;-90
2021/05/19 09:03:14;;;;;;;2.47;1.20;;;18.90;63.50;;;;;;6158107;23;20079;-92
2021/05/19 09:05:49;;;;;;;5.15;1.15;;;19.40;61.20;;;;;;6157955;23;20088;-90
2021/05/19 09:08:18;;;;;;;3.08;1.10;;;19.60;63.00;;;;;;6130677;23;20030;-93
2021/05/19 09:11:03;;;;;;;1.77;1.00;;;19.20;63.00;;;;;;6153703;23;20397;-90
2021/05/19 09:13:42;;;;;;;2.55;0.85;;;19.20;62.30;;;;;;6155353;23;20030;-92
2021/05/19 09:16:15;;;;;;;2.28;0.98;;;19.60;60.70;;;;;;6156796;23;20026;-93
2021/05/19 09:18:50;;;;;;;1.20;0.77;;;20.20;58.10;;;;;;6159543;23;20037;-92
2021/05/19 09:21:36;;;;;;;2.03;0.70;;;19.70;58.40;;;;;;6156649;23;20033;-92
2021/05/19 09:24:10;;;;;;;6.15;1.05;;;19.70;57.00;;;;;;6157571;23;20601;-93
2021/05/19 09:26:53;;;;;;;3.33;1.20;;;20.00;56.40;;;;;;6154335;23;20437;-93
2021/05/19 09:29:29;;;;;;;1.23;0.90;;;19.80;57.80;;;;;;6156606;23;20206;-91
2021/05/19 09:32:04;;;;;;;2.20;0.80;;;19.30;59.20;;;;;;6153318;23;20022;-92
2021/05/19 09:34:37;;;;;;;2.30;0.80;;;19.30;57.20;;;;;;6155480;23;20429;-93
2021/05/19 09:37:18;;;;;;;2.33;1.05;;;19.10;57.80;;;;;;6153419;23;20072;-92
2021/05/19 09:39:49;;;;;;;1.05;0.70;;;19.20;57.80;;;;;;6157325;23;20060;-92
2021/05/19 09:42:18;;;;;;;1.15;0.80;;;19.50;55.40;;;;;;6153813;23;20378;-91
2021/05/19 09:44:48;;;;;;;1.00;0.73;;;19.40;57.10;;;;;;6153560;23;20033;-90
2021/05/19 09:47:38;;;;;;;4.05;0.90;;;19.20;60.90;;;;;;6153371;23;20021;-92
2021/05/19 09:50:07;;;;;;;2.45;1.00;;;18.90;58.50;;;;;;6153635;23;20109;-92
2021/05/19 09:52:34;;;;;;;3.85;0.73;;;18.70;57.60;;;;;;6129746;23;20088;-92
2021/05/19 09:55:07;;;;;;;3.03;0.90;;;18.10;60.20;;;;;;6133244;23;20033;-91
2021/05/19 09:57:48;;;;;;;1.05;0.50;;;17.50;55.10;;;;;;6163910;23;20073;-92
2021/05/19 10:00:22;;;;;;;3.03;0.40;;;17.50;55.30;;;;;;6168143;23;20032;-91
2021/05/19 10:02:50;;;;;;;1.33;0.57;;;17.20;53.00;;;;;;6131960;23;20421;-92
2021/05/19 10:05:21;;;;;;;1.48;0.60;;;18.00;55.60;;;;;;6153037;23;20101;-92
2021/05/19 10:07:48;;;;;;;0.60;0.40;;;19.40;49.60;;;;;;6153604;23;20700;-90
2021/05/19 10:10:15;;;;;;;0.40;0.30;;;20.60;44.70;;;;;;6154213;23;20022;-90
2021/05/19 10:12:44;;;;;;;4.22;0.70;;;21.20;42.20;;;;;;6152701;23;20105;-92
2021/05/19 10:15:19;;;;;;;2.15;0.45;;;21.20;42.50;;;;;;6154097;23;20064;-92
2021/05/19 10:17:53;;;;;;;2.17;0.40;;;21.60;42.20;;;;;;6153782;23;20018;-91
2021/05/19 10:20:24;;;;;;;0.40;0.40;;;21.70;43.20;;;;;;6153734;23;20052;-92
2021/05/19 10:22:51;;;;;;;1.80;0.30;;;21.60;45.70;;;;;;6154542;23;20059;-90
2021/05/19 10:26:01;;;;;;;2.58;0.50;;;21.80;42.10;;;;;;6154139;23;20445;-92
2021/05/19 10:28:46;;;;;;;2.30;0.43;;;22.80;41.80;;;;;;6149230;23;20354;-90
2021/05/19 10:31:25;;;;;;;0.80;0.60;;;23.60;40.30;;;;;;6153236;23;20026;-92
2021/05/19 10:33:55;;;;;;;2.08;0.52;;;24.30;40.00;;;;;;6128493;23;20310;-90
2021/05/19 10:36:25;;;;;;;1.77;0.50;;;24.70;39.40;;;;;;6153218;23;20092;-89
2021/05/19 10:39:19;;;;;;;2.97;0.43;;;25.40;35.60;;;;;;6153539;23;20025;-89
2021/05/19 10:41:51;;;;;;;1.52;0.60;;;25.80;34.10;;;;;;6148753;23;20025;-90
2021/05/19 10:44:19;;;;;;;;;;;25.90;34.10;;;;;;6158863;23;20033;-90
2021/05/19 10:47:03;;;;;;;2.25;0.40;;;26.00;36.90;;;;;;6156451;23;19920;-90
2021/05/19 10:49:58;;;;;;;3.58;0.95;;;25.80;35.90;;;;;;6156671;23;20337;-92
2021/05/19 10:58:01;;;;;;;2.42;0.68;;;22.90;41.80;;;;;;6160088;23;20437;-92
2021/05/19 11:00:30;;;;;;;1.85;0.68;;;22.20;41.60;;;;;;6131119;23;20131;-90
2021/05/19 11:03:01;;;;;;;0.65;0.43;;;21.20;43.30;;;;;;6152465;23;20026;-89
2021/05/19 11:05:32;;;;;;;2.10;0.60;;;21.30;40.20;;;;;;6152760;23;20021;-92
2021/05/19 11:08:11;;;;;;;2.80;0.57;;;22.30;36.10;;;;;;6153882;23;20029;-90
2021/05/19 11:10:42;;;;;;;0.60;0.40;;;22.80;30.60;;;;;;6129751;23;20033;-92
2021/05/19 11:13:09;;;;;;;2.83;0.70;;;23.80;31.10;;;;;;6155446;23;20033;-90
2021/05/19 11:15:47;;;;;;;1.67;0.65;;;24.20;30.60;;;;;;6155801;23;20087;-92
2021/05/19 11:20:56;;;;;;;4.57;0.60;;;24.50;37.30;;;;;;6155028;23;20080;-88
2021/05/19 11:23:25;;;;;;;2.00;0.50;;;24.50;38.20;;;;;;6154115;23;20022;-87
2021/05/19 11:26:09;;;;;;;2.97;0.52;;;25.40;33.20;;;;;;6155176;23;20052;-89
2021/05/19 11:28:35;;;;;;;2.53;0.60;;;26.20;32.50;;;;;;6155278;23;20021;-87
2021/05/19 11:31:15;;;;;;;2.03;0.55;;;26.00;31.70;;;;;;6129446;23;20021;-88
2021/05/19 11:33:55;;;;;;;0.88;0.35;;;24.40;33.20;;;;;;6154602;23;20028;-87
2021/05/19 11:36:42;;;;;;;1.27;0.60;;;24.20;39.10;;;;;;6154233;23;20053;-88
2021/05/19 11:39:23;;;;;;;3.65;0.70;;;25.00;38.30;;;;;;6156716;23;20471;-88
2021/05/19 11:42:08;;;;;;;2.42;0.50;;;26.10;29.00;;;;;;6131021;23;20100;-89
2021/05/19 11:44:41;;;;;;;2.25;0.52;;;25.30;31.90;;;;;;6129681;23;20040;-89
2021/05/19 11:47:09;;;;;;;2.03;0.63;;;26.10;32.10;;;;;;6154140;23;20017;-88
2021/05/19 11:49:39;;;;;;;3.72;0.80;;;27.30;31.30;;;;;;6154999;23;20045;-89
2021/05/19 11:52:06;;;;;;;3.55;0.77;;;27.90;29.10;;;;;;6128777;23;20024;-88
2021/05/19 11:54:43;;;;;;;1.45;0.73;;;26.60;30.50;;;;;;6130239;23;20080;-88
2021/05/19 11:57:10;;;;;;;4.30;0.80;;;24.90;35.40;;;;;;6154730;23;20026;-88
2021/05/19 11:59:39;;;;;;;2.85;0.80;;;23.70;38.10;;;;;;6154866;23;20038;-89
2021/05/19 12:02:18;;;;;;;1.05;0.50;;;24.40;36.90;;;;;;6128540;23;20061;-88
2021/05/19 12:04:51;;;;;;;2.20;0.50;;;25.40;39.90;;;;;;6154297;23;20325;-87
2021/05/19 12:07:18;;;;;;;3.13;0.70;;;25.90;34.10;;;;;;6154159;23;20100;-88
2021/05/19 12:09:46;;;;;;;4.07;0.50;;;26.30;32.70;;;;;;6128606;23;20036;-90
2021/05/19 12:12:28;;;;;;;3.17;0.80;;;26.70;35.80;;;;;;6128134;23;20018;-92
2021/05/19 12:18:32;;;;;;;3.10;0.60;;;27.00;35.70;;;;;;6123690;23;20017;-88
2021/05/19 12:21:20;;;;;;;2.90;0.63;;;25.20;35.30;;;;;;6128902;23;20033;-88
2021/05/19 12:23:57;;;;;;;0.60;0.30;;;25.70;37.50;;;;;;6117685;23;20365;-89
2021/05/19 12:26:27;;;;;;;2.28;0.50;;;26.70;31.70;;;;;;6153651;23;20644;-91
2021/05/19 12:28:57;;;;;;;1.55;0.55;;;27.70;29.40;;;;;;6128894;23;20029;-90
2021/05/19 12:31:33;;;;;;;2.10;0.45;;;28.00;28.70;;;;;;6129398;23;20017;-88
2021/05/19 12:34:14;;;;;;;1.50;0.40;;;28.20;27.90;;;;;;6129339;23;20361;-89
2021/05/19 12:36:42;;;;;;;3.53;0.70;;;27.30;28.50;;;;;;6154315;23;20025;-89
2021/05/19 12:39:09;;;;;;;2.67;0.50;;;26.90;29.30;;;;;;6154838;23;20021;-90
2021/05/19 12:41:44;;;;;;;1.60;0.55;;;27.00;32.20;;;;;;6129062;23;20030;-91
2021/05/19 12:44:16;;;;;;;2.45;0.50;;;27.10;27.10;;;;;;6154608;23;20021;-89
2021/05/19 12:47:07;;;;;;;3.88;0.57;;;26.90;31.10;;;;;;6128919;23;20483;-89
2021/05/19 12:49:36;;;;;;;1.48;0.60;;;27.50;28.90;;;;;;6128764;23;20014;-88
2021/05/19 12:52:16;;;;;;;0.50;0.50;;;27.80;29.90;;;;;;6142384;23;20018;-88
2021/05/19 12:54:49;;;;;;;1.52;0.57;;;28.20;28.60;;;;;;6128609;23;20022;-88
2021/05/19 12:57:48;;;;;;;4.38;0.60;;;28.90;30.30;;;;;;6129574;23;20053;-89
2021/05/19 13:00:27;;;;;;;1.88;0.60;;;29.20;25.80;;;;;;6121797;23;20018;-91
2021/05/19 13:03:30;;;;;;;4.18;0.80;;;27.50;25.60;;;;;;6053781;23;20474;-90
2021/05/19 13:06:15;;;;;;;1.23;0.60;;;25.00;29.20;;;;;;6069322;23;20414;-90
2021/05/19 13:09:17;;;;;;;2.60;0.60;;;22.60;32.50;;;;;;6091852;23;20022;-89
2021/05/19 13:12:08;;;;;;;2.88;0.70;;;21.70;36.60;;;;;;6068338;23;20027;-90
2021/05/19 13:15:16;;;;;;;4.40;0.85;;;21.10;39.40;;;;;;5997610;23;20104;-90
2021/05/19 13:18:17;;;;;;;2.38;0.70;;;20.80;40.90;;;;;;5955105;24;20052;-89
2021/05/19 13:21:10;;;;;;;3.67;0.90;;;20.60;44.10;;;;;;6007622;23;20027;-89
2021/05/19 13:23:57;;;;;;;3.45;1.10;;;21.20;40.60;;;;;;6036981;23;20128;-89
2021/05/19 13:26:28;;;;;;;5.32;1.00;;;23.00;41.40;;;;;;6041716;23;20543;-89
2021/05/19 13:29:10;;;;;;;3.30;0.88;;;25.00;41.10;;;;;;6035214;23;20022;-92
2021/05/19 13:36:54;;;;;;;3.08;0.55;;;28.00;29.10;;;;;;6156296;23;20033;-91
2021/05/19 13:39:30;;;;;;;3.83;0.60;;;28.50;27.60;;;;;;6105322;23;20021;-91
2021/05/19 13:42:03;;;;;;;2.67;0.70;;;28.30;29.90;;;;;;6128320;23;20385;-89
2021/05/19 13:44:31;;;;;;;4.93;0.60;;;26.90;29.40;;;;;;6128117;23;20317;-89
2021/05/19 13:46:59;;;;;;;2.25;0.68;;;26.10;32.40;;;;;;6127163;23;20108;-89
2021/05/19 13:49:32;;;;;;;2.25;0.68;;;25.90;36.10;;;;;;6132142;23;20058;-87
2021/05/19 13:52:05;;;;;;;2.97;0.60;;;26.20;33.70;;;;;;6127621;23;20090;-88
2021/05/19 13:54:48;;;;;;;3.30;0.70;;;26.40;34.60;;;;;;6152945;23;20327;-88
2021/05/19 13:57:15;;;;;;;4.13;0.82;;;26.90;35.20;;;;;;6152395;23;20025;-87